Weather forecast for Cergowa

Poland, 671 m
N49.532, E21.719


Sounding

Red line — air temperature ˚C.
Blue line — thermal bubble temperature ˚C.
Green line — dew point temperature ˚C.
Wind speed is in meters per second.

Table forecast

GFS 0.25˚ model

temp. wind gust humid. clouds prec. press. hpbl
Fri22 00:00 3 266.0 w 2 8 96 100 7.4 1019 528
03:00 2 285.0 wnw 2 9 98 100 2.6 1019 502
06:00 -1 42.0 ne 7 12 96 100 6.1 1021 559
09:00 -4 34.0 ne 7 11 85 100 1.6 1027 919
12:00 -3 24.0 nne 7 11 63 84 1.6 1031 1202
15:00 -5 21.0 nne 7 12 65 2 0.0 1033 1274
18:00 -6 19.0 nne 6 12 61 2 0.0 1037 1467
21:00 -6 16.0 nne 6 11 58 3 0.0 1040 1525
 
Sat23 00:00 -6 23.0 nne 6 10 61 36 0.0 1041 1313
03:00 -7 21.0 nne 5 9 65 38 0.0 1041 1195
06:00 -7 22.0 nne 5 9 68 68 0.0 1042 1047
09:00 -5 16.0 nne 5 8 58 22 0.0 1043 1143
12:00 -3 21.0 nne 4 7 51 28 0.0 1042 1120
15:00 -4 18.0 nne 4 6 52 65 0.0 1042 963
18:00 -5 24.0 nne 3 7 61 60 0.0 1043 349
21:00 -6 23.0 nne 2 4 66 78 0.0 1043 169
 
Sun24 00:00 -6 17.0 nne 1 2 67 88 0.0 1042 39
03:00 -5 3.0 n 1 2 60 99 0.0 1041 179
06:00 -6 338.0 nnw 1 1 62 98 0.0 1041 21
09:00 -1 287.0 wnw 1 1 38 95 0.0 1040 335
12:00 1 300.0 wnw 2 3 36 93 0.0 1039 627
15:00 0 280.0 w 1 3 58 99 0.1 1039 426
18:00 -1 237.0 wsw 1 1 70 93 0.1 1039 21
21:00 -2 228.0 sw 1 1 73 99 0.0 1039 21
 
Mon25 00:00 -2 217.0 sw 1 2 69 83 0.0 1039 22
03:00 -2 213.0 ssw 2 2 66 99 0.0 1038 25
06:00 -2 226.0 sw 1 2 66 49 0.0 1038 24
09:00 3 299.0 wnw 3 6 56 17 0.0 1037 508
12:00 5 318.0 nw 4 7 63 42 0.0 1035 582
15:00 3 321.0 nw 3 9 80 95 0.0 1035 522
18:00 1 337.0 nnw 3 11 92 97 0.0 1036 454
21:00 1 341.0 nnw 3 8 97 100 0.1 1036 416
 
Tue26 00:00 -0 330.0 nnw 2 7 98 100 0.1 1034 229
03:00 -1 321.0 nw 2 3 96 100 0.0 1032 86
06:00 -0 306.0 nw 2 11 90 98 0.0 1030 353
09:00 6 314.0 nw 6 14 65 85 0.0 1027 693
12:00 3 319.0 nw 6 15 81 93 0.1 1026 704
15:00 4 318.0 nw 6 13 85 95 0.0 1026 730
18:00 2 322.0 nw 5 15 91 54 0.0 1027 689
21:00 2 328.0 nnw 6 16 90 13 0.0 1026 779
 

0.013 s